createdAt,value
2023-05-13T00:01:43.448Z,2.70
2023-05-13T00:04:10.271Z,2.70
2023-05-13T00:06:37.371Z,2.50
2023-05-13T00:09:04.482Z,4.00
2023-05-13T00:11:31.310Z,4.27
2023-05-13T00:13:58.167Z,3.20
2023-05-13T00:16:27.661Z,3.10
2023-05-13T00:18:55.979Z,3.63
2023-05-13T00:21:23.621Z,2.80
2023-05-13T00:23:50.549Z,2.80
2023-05-13T00:26:17.485Z,2.80
2023-05-13T00:28:44.348Z,3.20
2023-05-13T00:31:11.535Z,3.20
2023-05-13T00:33:38.557Z,3.60
2023-05-13T00:36:06.424Z,3.13
2023-05-13T00:38:33.453Z,3.73
2023-05-13T00:41:00.714Z,6.70
2023-05-13T00:43:27.609Z,3.53
2023-05-13T00:45:54.598Z,2.73
2023-05-13T00:48:23.097Z,3.77
2023-05-13T00:50:50.201Z,2.57
2023-05-13T00:53:17.800Z,2.60
2023-05-13T00:55:46.126Z,3.97
2023-05-13T00:58:14.000Z,3.47
2023-05-13T01:01:15.225Z,3.43
2023-05-13T01:04:04.385Z,3.50
2023-05-13T01:06:40.447Z,4.10
2023-05-13T01:09:26.196Z,3.87
2023-05-13T01:11:55.525Z,3.20
2023-05-13T01:14:34.014Z,3.70
2023-05-13T01:17:12.293Z,4.13
2023-05-13T01:19:44.813Z,4.00
2023-05-13T01:22:11.686Z,5.73
2023-05-13T01:24:38.669Z,4.20
2023-05-13T01:27:06.355Z,3.97
2023-05-13T01:29:33.503Z,6.67
2023-05-13T01:32:01.165Z,5.00
2023-05-13T01:34:28.545Z,5.70
2023-05-13T01:36:56.279Z,5.30
2023-05-13T01:39:24.474Z,5.93
2023-05-13T01:41:51.422Z,5.10
2023-05-13T01:44:18.286Z,5.70
2023-05-13T01:46:45.512Z,5.17
2023-05-13T01:49:12.590Z,5.70
2023-05-13T01:51:40.317Z,6.43
2023-05-13T01:54:07.234Z,7.63
2023-05-13T01:56:34.392Z,6.67
2023-05-13T01:59:01.269Z,6.90
2023-05-13T02:01:28.246Z,7.73
2023-05-13T02:04:00.016Z,7.57
2023-05-13T02:06:28.023Z,7.07
2023-05-13T02:08:54.966Z,7.50
2023-05-13T02:11:22.441Z,7.20
2023-05-13T02:13:49.384Z,7.93
2023-05-13T02:16:20.278Z,8.17
2023-05-13T02:18:47.112Z,8.47
2023-05-13T02:21:14.034Z,7.93
2023-05-13T02:23:40.931Z,8.27
2023-05-13T02:26:07.821Z,8.23
2023-05-13T02:28:34.636Z,8.00
2023-05-13T02:31:01.517Z,8.27
2023-05-13T02:33:28.331Z,8.53
2023-05-13T02:35:55.159Z,7.93
2023-05-13T02:38:22.033Z,8.30
2023-05-13T02:40:49.205Z,8.93
2023-05-13T02:43:16.068Z,8.93
2023-05-13T02:45:42.913Z,8.33
2023-05-13T02:48:11.029Z,8.90
2023-05-13T02:50:37.997Z,9.33
2023-05-13T02:53:04.851Z,8.17
2023-05-13T02:55:31.707Z,8.13
2023-05-13T02:57:58.552Z,8.57
2023-05-13T03:00:25.586Z,7.70
2023-05-13T03:02:52.533Z,7.30
2023-05-13T03:05:19.540Z,8.87
2023-05-13T03:07:46.526Z,7.80
2023-05-13T03:10:13.797Z,6.87
2023-05-13T03:12:40.748Z,7.73
2023-05-13T03:15:08.419Z,7.60
2023-05-13T03:17:35.287Z,7.47
2023-05-13T03:20:02.218Z,7.57
2023-05-13T03:22:29.196Z,6.83
2023-05-13T03:24:57.160Z,6.57
2023-05-13T03:27:24.016Z,6.63
2023-05-13T03:29:51.032Z,6.80
2023-05-13T03:32:17.903Z,6.90
2023-05-13T03:34:44.712Z,5.97
2023-05-13T03:37:11.734Z,6.63
2023-05-13T03:39:38.550Z,6.77
2023-05-13T03:42:05.710Z,6.83
2023-05-13T03:44:32.527Z,6.23
2023-05-13T03:46:59.311Z,6.17
2023-05-13T03:49:26.275Z,6.63
2023-05-13T03:51:53.083Z,6.93
2023-05-13T03:54:19.871Z,6.90
2023-05-13T03:56:46.804Z,6.50
2023-05-13T03:59:13.674Z,6.37
2023-05-13T04:01:40.745Z,6.27
2023-05-13T04:04:07.579Z,6.80
2023-05-13T04:06:34.498Z,6.43
2023-05-13T04:09:04.452Z,6.40
2023-05-13T04:11:32.323Z,7.10
2023-05-13T04:13:59.397Z,6.50
2023-05-13T04:16:26.267Z,6.77
2023-05-13T04:18:53.231Z,5.70
2023-05-13T04:21:20.077Z,6.97
2023-05-13T04:23:46.900Z,6.50
2023-05-13T04:26:13.711Z,6.70
2023-05-13T04:28:40.601Z,6.67
2023-05-13T04:31:07.452Z,7.20
2023-05-13T04:33:34.284Z,7.50
2023-05-13T04:36:01.353Z,7.20
2023-05-13T04:38:28.162Z,8.33
2023-05-13T04:40:55.020Z,7.47
2023-05-13T04:43:22.116Z,7.37
2023-05-13T04:45:49.255Z,9.60
2023-05-13T04:48:16.495Z,9.10
2023-05-13T04:50:47.108Z,9.33
2023-05-13T04:53:15.586Z,8.37
2023-05-13T04:55:42.603Z,8.63
2023-05-13T04:58:09.507Z,8.37
2023-05-13T05:00:36.311Z,8.37
2023-05-13T05:03:03.249Z,7.83
2023-05-13T05:05:30.155Z,7.23
2023-05-13T05:07:56.953Z,8.00
2023-05-13T05:10:23.912Z,6.40
2023-05-13T05:12:51.032Z,6.17
2023-05-13T05:15:17.857Z,6.20
2023-05-13T05:17:45.404Z,6.20
2023-05-13T05:20:13.392Z,5.97
2023-05-13T05:22:41.998Z,5.73
2023-05-13T05:25:10.645Z,5.73
2023-05-13T05:27:37.491Z,6.03
2023-05-13T05:30:05.299Z,5.57
2023-05-13T05:32:32.764Z,5.97
2023-05-13T05:35:02.050Z,6.03
2023-05-13T05:37:30.807Z,6.30
2023-05-13T05:39:57.660Z,6.00
2023-05-13T05:42:24.488Z,6.27
2023-05-13T05:44:51.337Z,6.90
2023-05-13T05:47:18.147Z,6.90
2023-05-13T05:49:45.006Z,7.13
2023-05-13T05:52:13.267Z,7.10
2023-05-13T05:54:40.140Z,7.23
2023-05-13T05:57:07.022Z,6.77
2023-05-13T05:59:33.909Z,7.10
2023-05-13T06:02:00.799Z,7.20
2023-05-13T06:04:27.799Z,6.77
2023-05-13T06:06:54.636Z,6.63
2023-05-13T06:09:21.567Z,6.70
2023-05-13T06:11:48.401Z,7.00
2023-05-13T06:14:16.688Z,6.87
2023-05-13T06:16:44.678Z,6.07
2023-05-13T06:19:11.596Z,6.40
2023-05-13T06:21:38.491Z,6.13
2023-05-13T06:24:05.652Z,5.90
2023-05-13T06:26:32.648Z,5.67
2023-05-13T06:28:59.539Z,5.80
2023-05-13T06:31:26.735Z,5.97
2023-05-13T06:33:53.663Z,5.43
2023-05-13T06:36:20.646Z,5.50
2023-05-13T06:38:47.664Z,4.70
2023-05-13T06:41:15.321Z,4.40
2023-05-13T06:43:42.145Z,4.50
2023-05-13T06:46:08.997Z,4.40
2023-05-13T06:48:35.855Z,4.47
2023-05-13T06:51:02.682Z,4.07
2023-05-13T06:53:29.531Z,4.70
2023-05-13T06:55:56.383Z,3.60
2023-05-13T06:58:23.223Z,4.03
2023-05-13T07:00:50.125Z,3.80
2023-05-13T07:03:17.742Z,4.03
2023-05-13T07:05:44.883Z,9.33
2023-05-13T07:08:17.689Z,4.17
2023-05-13T07:10:45.044Z,3.43
2023-05-13T07:13:11.962Z,3.70
2023-05-13T07:15:38.893Z,3.97
2023-05-13T07:18:05.882Z,3.67
2023-05-13T07:20:32.934Z,3.13
2023-05-13T07:22:59.761Z,3.60
2023-05-13T07:25:26.661Z,3.37
2023-05-13T07:27:53.526Z,4.33
2023-05-13T07:30:20.642Z,2.70
2023-05-13T07:32:47.936Z,3.10
2023-05-13T07:35:17.091Z,3.87
2023-05-13T07:37:46.951Z,4.47
2023-05-13T07:40:14.059Z,2.93
2023-05-13T07:42:41.308Z,2.93
2023-05-13T07:45:09.064Z,2.60
2023-05-13T07:47:35.880Z,2.60
2023-05-13T07:50:02.798Z,2.70
2023-05-13T07:52:29.678Z,2.50
2023-05-13T07:54:56.555Z,2.97
2023-05-13T07:57:23.483Z,2.67
2023-05-13T07:59:50.304Z,2.57
2023-05-13T08:02:17.254Z,2.90
2023-05-13T08:04:44.216Z,2.77
2023-05-13T08:07:11.758Z,3.03
2023-05-13T08:09:38.827Z,2.30
2023-05-13T08:12:06.394Z,2.03
2023-05-13T08:14:33.251Z,2.70
2023-05-13T08:17:00.051Z,2.20
2023-05-13T08:19:26.899Z,2.33
2023-05-13T08:21:53.776Z,2.23
2023-05-13T08:24:20.808Z,2.53
2023-05-13T08:26:47.712Z,2.50
2023-05-13T08:29:15.692Z,2.07
2023-05-13T08:31:42.621Z,2.10
2023-05-13T08:34:09.461Z,2.83
2023-05-13T08:36:36.493Z,2.40
2023-05-13T08:39:03.690Z,2.40
2023-05-13T08:41:31.846Z,2.20
2023-05-13T08:43:59.192Z,2.20
2023-05-13T08:46:28.908Z,2.50
2023-05-13T08:48:56.413Z,2.40
2023-05-13T08:51:23.807Z,2.70
2023-05-13T08:53:53.120Z,2.37
2023-05-13T08:56:20.114Z,2.60
2023-05-13T08:58:46.966Z,2.83
2023-05-13T09:01:13.887Z,2.70
2023-05-13T09:04:00.036Z,2.40
2023-05-13T09:06:26.942Z,2.23
2023-05-13T09:08:54.991Z,2.70
2023-05-13T09:11:22.966Z,2.83
2023-05-13T09:14:02.741Z,2.90
2023-05-13T09:16:30.408Z,2.87
2023-05-13T09:19:04.205Z,3.33
2023-05-13T09:21:35.484Z,2.80
2023-05-13T09:24:18.989Z,5.50
2023-05-13T09:26:46.393Z,5.20
2023-05-13T09:29:25.396Z,2.90
2023-05-13T09:31:55.135Z,3.10
2023-05-13T09:34:49.125Z,2.70
2023-05-13T09:37:18.742Z,3.10
2023-05-13T09:39:46.167Z,3.10
2023-05-13T09:42:18.458Z,3.17
2023-05-13T09:44:49.750Z,3.40
2023-05-13T09:47:17.812Z,3.20
2023-05-13T09:49:55.038Z,3.10
2023-05-13T09:52:22.500Z,2.97
2023-05-13T09:54:49.347Z,3.13
2023-05-13T09:57:16.259Z,3.27
2023-05-13T09:59:43.118Z,2.93
2023-05-13T10:02:11.597Z,2.90
2023-05-13T10:04:38.852Z,2.60
2023-05-13T10:07:06.355Z,2.77
2023-05-13T10:09:36.936Z,2.77
2023-05-13T10:12:07.848Z,3.07
2023-05-13T10:14:37.276Z,2.70
2023-05-13T10:17:05.449Z,2.63
2023-05-13T10:19:32.942Z,2.60
2023-05-13T10:22:00.409Z,2.50
2023-05-13T10:24:28.917Z,2.83
2023-05-13T10:26:58.045Z,2.33
2023-05-13T10:29:26.557Z,2.50
2023-05-13T10:31:54.545Z,2.23
2023-05-13T10:34:22.988Z,2.63
2023-05-13T10:37:27.515Z,3.27
2023-05-13T10:40:22.222Z,3.90
2023-05-13T10:43:08.761Z,2.97
2023-05-13T10:45:35.728Z,2.10
2023-05-13T10:48:11.919Z,2.23
2023-05-13T10:50:39.247Z,2.10
2023-05-13T10:53:19.661Z,2.00
2023-05-13T10:55:46.624Z,2.93
2023-05-13T10:58:14.994Z,1.90
2023-05-13T11:00:45.822Z,1.43
2023-05-13T11:03:18.599Z,4.00
2023-05-13T11:05:59.309Z,1.67
2023-05-13T11:08:44.319Z,2.73
2023-05-13T11:11:20.818Z,2.03
2023-05-13T11:13:51.182Z,1.63
2023-05-13T11:16:18.693Z,1.73
2023-05-13T11:18:45.807Z,1.70
2023-05-13T11:21:13.324Z,1.70
2023-05-13T11:24:06.432Z,1.27
2023-05-13T11:26:53.436Z,1.50
2023-05-13T11:29:36.399Z,1.50
2023-05-13T11:32:05.818Z,1.50
2023-05-13T11:34:34.401Z,1.47
2023-05-13T11:37:04.152Z,1.77
2023-05-13T11:39:33.052Z,3.10
2023-05-13T11:42:03.903Z,1.57
2023-05-13T11:44:31.146Z,1.50
2023-05-13T11:47:06.053Z,1.40
2023-05-13T11:49:44.553Z,1.60
2023-05-13T11:52:17.157Z,1.57
2023-05-13T11:54:56.243Z,1.60
2023-05-13T11:57:28.343Z,1.60
2023-05-13T11:59:57.964Z,1.47
2023-05-13T12:02:33.515Z,1.30
2023-05-13T12:05:04.262Z,2.40
2023-05-13T12:07:32.018Z,1.30
2023-05-13T12:10:01.533Z,1.67
2023-05-13T12:12:30.290Z,1.40
2023-05-13T12:15:03.791Z,1.47
2023-05-13T12:17:31.899Z,1.30
2023-05-13T12:20:19.424Z,1.37
2023-05-13T12:22:46.133Z,1.67
2023-05-13T12:25:31.389Z,1.10
2023-05-13T12:27:59.809Z,1.93
2023-05-13T12:30:33.902Z,1.47
2023-05-13T12:33:00.856Z,1.50
2023-05-13T12:35:27.764Z,1.30
2023-05-13T12:38:02.328Z,1.30
2023-05-13T12:40:29.282Z,1.50
2023-05-13T12:43:00.718Z,1.47
2023-05-13T12:45:33.511Z,1.23
2023-05-13T12:48:01.058Z,1.30
2023-05-13T12:50:28.009Z,1.30
2023-05-13T12:52:54.875Z,2.00
2023-05-13T12:55:22.093Z,1.40
2023-05-13T12:58:03.121Z,2.03
2023-05-13T13:00:30.907Z,1.40
2023-05-13T13:02:58.198Z,1.27
2023-05-13T13:05:26.986Z,1.33
2023-05-13T13:07:53.846Z,1.10
2023-05-13T13:10:20.788Z,0.97
2023-05-13T13:12:47.941Z,0.77
2023-05-13T13:15:14.750Z,0.90
2023-05-13T13:17:41.649Z,1.40
2023-05-13T13:20:08.861Z,2.30
2023-05-13T13:22:37.186Z,1.00
2023-05-13T13:25:07.890Z,1.17
2023-05-13T13:27:35.158Z,1.30
2023-05-13T13:30:02.578Z,1.20
2023-05-13T13:32:29.503Z,1.40
2023-05-13T13:34:58.129Z,1.30
2023-05-13T13:37:25.122Z,1.53
2023-05-13T13:39:51.978Z,2.43
2023-05-13T13:42:18.792Z,1.40
2023-05-13T13:44:45.623Z,1.40
2023-05-13T13:47:12.483Z,1.50
2023-05-13T13:49:39.321Z,1.13
2023-05-13T13:52:06.387Z,1.30
2023-05-13T13:54:33.228Z,1.47
2023-05-13T13:57:00.052Z,1.20
2023-05-13T13:59:26.913Z,1.30
2023-05-13T14:01:54.075Z,1.40
2023-05-13T14:04:23.591Z,1.40
2023-05-13T14:06:51.229Z,1.13
2023-05-13T14:09:18.616Z,1.43
2023-05-13T14:11:45.661Z,1.20
2023-05-13T14:14:12.776Z,1.20
2023-05-13T14:16:40.128Z,0.83
2023-05-13T14:19:06.968Z,2.43
2023-05-13T14:21:33.882Z,0.90
2023-05-13T14:24:00.689Z,1.60
2023-05-13T14:26:27.866Z,1.17
2023-05-13T14:28:54.815Z,1.13
2023-05-13T14:31:21.690Z,0.97
2023-05-13T14:33:48.525Z,1.43
2023-05-13T14:36:16.309Z,1.20
2023-05-13T14:38:44.322Z,1.43
2023-05-13T14:41:12.594Z,0.90
2023-05-13T14:43:39.434Z,1.77
2023-05-13T14:46:06.309Z,1.10
2023-05-13T14:48:33.126Z,0.97
2023-05-13T14:50:59.967Z,2.23
2023-05-13T14:53:26.805Z,0.83
2023-05-13T14:55:53.863Z,0.93
2023-05-13T14:58:20.769Z,1.23
2023-05-13T15:00:49.137Z,1.30
2023-05-13T15:03:16.652Z,1.03
2023-05-13T15:05:44.296Z,1.37
2023-05-13T15:08:11.448Z,1.20
2023-05-13T15:10:38.244Z,1.63
2023-05-13T15:13:05.030Z,1.27
2023-05-13T15:15:33.565Z,1.23
2023-05-13T15:18:00.564Z,1.50
2023-05-13T15:20:28.544Z,2.20
2023-05-13T15:22:57.681Z,1.80
2023-05-13T15:25:24.504Z,2.57
2023-05-13T15:27:51.336Z,2.80
2023-05-13T15:30:18.294Z,1.23
2023-05-13T15:32:45.194Z,0.83
2023-05-13T15:35:12.119Z,2.10
2023-05-13T15:37:42.575Z,2.40
2023-05-13T15:40:10.045Z,3.23
2023-05-13T15:42:36.884Z,2.20
2023-05-13T15:45:04.250Z,1.73
2023-05-13T15:47:31.263Z,1.60
2023-05-13T15:49:58.417Z,1.17
2023-05-13T15:52:25.271Z,1.40
2023-05-13T15:54:52.157Z,2.50
2023-05-13T15:57:19.155Z,2.40
2023-05-13T15:59:46.041Z,2.60
2023-05-13T16:02:12.906Z,2.90
2023-05-13T16:04:39.891Z,2.70
2023-05-13T16:07:10.932Z,4.37
2023-05-13T16:09:41.013Z,10.33
2023-05-13T16:12:08.296Z,15.60
2023-05-13T16:14:35.138Z,12.07
2023-05-13T16:17:02.088Z,25.30
2023-05-13T16:19:28.894Z,12.47
2023-05-13T16:21:56.009Z,10.90
2023-05-13T16:24:22.798Z,33.07
2023-05-13T16:26:49.769Z,28.33
2023-05-13T16:29:17.386Z,11.10
2023-05-13T16:31:44.218Z,8.97
2023-05-13T16:34:11.171Z,6.70
2023-05-13T16:36:38.015Z,5.00
2023-05-13T16:39:05.555Z,5.73
2023-05-13T16:41:33.210Z,6.27
2023-05-13T16:44:00.087Z,4.37
2023-05-13T16:46:27.014Z,4.30
2023-05-13T16:48:53.915Z,3.03
2023-05-13T16:51:20.787Z,1.53
2023-05-13T16:53:47.621Z,2.10
2023-05-13T16:56:14.410Z,1.60
2023-05-13T16:58:41.441Z,1.37
2023-05-13T17:01:08.402Z,0.93
2023-05-13T17:03:35.289Z,1.70
2023-05-13T17:06:03.076Z,2.70
2023-05-13T17:08:30.014Z,2.83
2023-05-13T17:10:56.878Z,2.17
2023-05-13T17:13:23.776Z,1.83
2023-05-13T17:15:51.376Z,2.40
2023-05-13T17:18:18.289Z,2.33
2023-05-13T17:20:45.880Z,3.87
2023-05-13T17:23:12.762Z,2.70
2023-05-13T17:25:39.642Z,2.30
2023-05-13T17:28:09.256Z,1.13
2023-05-13T17:30:36.090Z,0.90
2023-05-13T17:33:02.952Z,1.10
2023-05-13T17:35:29.913Z,1.40
2023-05-13T17:37:56.719Z,1.43
2023-05-13T17:40:23.769Z,1.27
2023-05-13T17:42:52.746Z,0.80
2023-05-13T17:45:20.059Z,1.33
2023-05-13T17:47:46.971Z,0.90
2023-05-13T17:50:14.890Z,1.80
2023-05-13T17:52:41.805Z,2.13
2023-05-13T17:55:09.149Z,1.50
2023-05-13T17:57:35.973Z,2.23
2023-05-13T18:00:06.951Z,5.23
2023-05-13T18:02:34.088Z,1.27
2023-05-13T18:05:01.044Z,2.03
2023-05-13T18:07:28.239Z,2.23
2023-05-13T18:09:55.163Z,1.43
2023-05-13T18:12:22.011Z,1.40
2023-05-13T18:14:48.901Z,1.20
2023-05-13T18:17:16.016Z,0.97
2023-05-13T18:19:42.838Z,1.37
2023-05-13T18:22:10.724Z,1.67
2023-05-13T18:24:40.742Z,1.30
2023-05-13T18:27:07.918Z,1.40
2023-05-13T18:29:35.855Z,1.10
2023-05-13T18:32:04.758Z,1.27
2023-05-13T18:34:33.106Z,1.37
2023-05-13T18:37:00.203Z,2.40
2023-05-13T18:39:27.043Z,2.33
2023-05-13T18:41:53.908Z,1.30
2023-05-13T18:44:20.741Z,1.33
2023-05-13T18:46:47.591Z,1.20
2023-05-13T18:49:14.421Z,1.60
2023-05-13T18:51:41.410Z,3.23
2023-05-13T18:54:08.200Z,2.70
2023-05-13T18:56:35.089Z,2.63
2023-05-13T18:59:01.934Z,2.03
2023-05-13T19:01:28.932Z,2.10
2023-05-13T19:03:56.793Z,1.43
2023-05-13T19:06:23.747Z,1.93
2023-05-13T19:08:50.571Z,3.43
2023-05-13T19:11:17.454Z,1.60
2023-05-13T19:13:47.562Z,3.40
2023-05-13T19:16:15.537Z,3.43
2023-05-13T19:18:42.544Z,4.53
2023-05-13T19:21:09.380Z,4.63
2023-05-13T19:23:37.888Z,5.30
2023-05-13T19:26:04.776Z,8.03
2023-05-13T19:28:32.139Z,6.13
2023-05-13T19:30:58.933Z,5.90
2023-05-13T19:33:26.157Z,6.50
2023-05-13T19:35:53.025Z,7.13
2023-05-13T19:38:20.714Z,7.73
2023-05-13T19:40:47.974Z,9.47
2023-05-13T19:43:14.887Z,7.73
2023-05-13T19:45:41.922Z,7.93
2023-05-13T19:48:08.872Z,8.53
2023-05-13T19:50:35.830Z,9.00
2023-05-13T19:53:02.650Z,8.67
2023-05-13T19:55:29.696Z,8.53
2023-05-13T19:57:56.771Z,11.10
2023-05-13T20:00:23.998Z,8.97
2023-05-13T20:02:51.509Z,9.33
2023-05-13T20:05:18.594Z,9.03
2023-05-13T20:07:45.616Z,8.57
2023-05-13T20:10:12.538Z,9.30
2023-05-13T20:12:39.376Z,11.17
2023-05-13T20:15:06.896Z,8.33
2023-05-13T20:17:33.774Z,8.87
2023-05-13T20:20:01.251Z,10.73
2023-05-13T20:22:28.185Z,17.07
2023-05-13T20:24:55.138Z,19.23
2023-05-13T20:27:21.976Z,11.50
2023-05-13T20:29:49.296Z,9.60
2023-05-13T20:32:24.442Z,8.57
2023-05-13T20:34:52.487Z,8.87
2023-05-13T20:37:21.795Z,7.80
2023-05-13T20:39:50.426Z,7.83
2023-05-13T20:42:17.327Z,9.30
2023-05-13T20:44:46.203Z,8.47
2023-05-13T20:47:13.837Z,8.97
2023-05-13T20:49:43.858Z,8.70
2023-05-13T20:52:11.303Z,8.73
2023-05-13T20:54:38.384Z,8.33
2023-05-13T20:57:05.752Z,9.50
2023-05-13T20:59:32.629Z,8.97
2023-05-13T21:01:59.696Z,9.43
2023-05-13T21:04:26.718Z,8.53
2023-05-13T21:06:53.780Z,9.17
2023-05-13T21:09:20.693Z,9.20
2023-05-13T21:11:47.584Z,11.43
2023-05-13T21:14:14.490Z,9.50
2023-05-13T21:16:41.463Z,9.50
2023-05-13T21:19:08.482Z,9.07
2023-05-13T21:21:35.424Z,12.00
2023-05-13T21:24:02.395Z,9.73
2023-05-13T21:26:29.361Z,10.47
2023-05-13T21:28:56.213Z,10.10
2023-05-13T21:31:23.738Z,10.70
2023-05-13T21:33:50.653Z,9.87
2023-05-13T21:36:17.519Z,9.97
2023-05-13T21:38:44.374Z,10.47
2023-05-13T21:41:11.243Z,10.67
2023-05-13T21:43:38.144Z,10.57
2023-05-13T21:46:06.537Z,10.67
2023-05-13T21:48:33.502Z,11.27
2023-05-13T21:51:00.471Z,10.07
2023-05-13T21:53:27.874Z,12.63
2023-05-13T21:55:58.931Z,10.30
2023-05-13T21:58:26.037Z,9.70
2023-05-13T22:00:53.624Z,11.07
2023-05-13T22:03:20.672Z,10.50
2023-05-13T22:05:47.566Z,9.77
2023-05-13T22:08:14.397Z,10.10
2023-05-13T22:10:41.208Z,10.67
2023-05-13T22:13:08.057Z,10.83
2023-05-13T22:15:34.906Z,9.73
2023-05-13T22:18:01.829Z,9.87
2023-05-13T22:20:28.748Z,10.13
2023-05-13T22:22:55.585Z,10.60
2023-05-13T22:25:22.583Z,10.47
2023-05-13T22:27:51.228Z,9.50
2023-05-13T22:30:18.615Z,9.87
2023-05-13T22:32:45.585Z,9.90
2023-05-13T22:35:12.465Z,9.93
2023-05-13T22:37:39.391Z,10.27
2023-05-13T22:40:07.328Z,10.27
2023-05-13T22:42:34.152Z,9.50
2023-05-13T22:45:00.974Z,8.90
2023-05-13T22:47:27.941Z,10.00
2023-05-13T22:49:54.894Z,10.10
2023-05-13T22:52:21.680Z,9.60
2023-05-13T22:54:48.505Z,9.63
2023-05-13T22:57:15.339Z,9.23
2023-05-13T22:59:42.177Z,9.97
2023-05-13T23:02:09.058Z,9.80
2023-05-13T23:04:36.102Z,9.50
2023-05-13T23:07:03.037Z,9.50
2023-05-13T23:09:29.872Z,10.17
2023-05-13T23:11:57.889Z,9.53
2023-05-13T23:14:27.561Z,10.23
2023-05-13T23:16:54.411Z,10.13
2023-05-13T23:19:21.292Z,10.20
2023-05-13T23:21:48.090Z,10.20
2023-05-13T23:24:14.878Z,10.90
2023-05-13T23:26:43.864Z,9.47
2023-05-13T23:29:11.509Z,9.70
2023-05-13T23:31:40.441Z,9.63
2023-05-13T23:34:08.376Z,9.83
2023-05-13T23:36:35.431Z,11.10
2023-05-13T23:39:02.245Z,9.67
2023-05-13T23:41:29.155Z,9.63
2023-05-13T23:43:56.009Z,11.63
2023-05-13T23:46:23.038Z,10.40
2023-05-13T23:48:49.885Z,9.47
2023-05-13T23:51:16.721Z,9.47
2023-05-13T23:53:43.577Z,10.03
2023-05-13T23:56:10.525Z,9.30
2023-05-13T23:58:37.437Z,9.50
